createdAt,value
2017-05-14T00:00:23.452Z,24.16
2017-05-14T00:02:52.528Z,22.98
2017-05-14T00:05:21.778Z,18.88
2017-05-14T00:07:51.756Z,20.16
2017-05-14T00:10:20.847Z,21.10
2017-05-14T00:12:49.903Z,22.42
2017-05-14T00:15:19.763Z,21.26
2017-05-14T00:17:48.855Z,19.00
2017-05-14T00:20:17.986Z,21.20
2017-05-14T00:22:47.055Z,23.86
2017-05-14T00:25:16.187Z,20.28
2017-05-14T00:27:45.250Z,20.16
2017-05-14T00:30:14.339Z,15.94
2017-05-14T00:32:43.415Z,19.08
2017-05-14T00:35:12.523Z,17.16
2017-05-14T00:37:41.639Z,15.18
2017-05-14T00:40:10.715Z,15.54
2017-05-14T00:42:39.834Z,18.84
2017-05-14T00:45:08.926Z,19.46
2017-05-14T00:47:38.043Z,18.74
2017-05-14T00:50:07.855Z,20.98
2017-05-14T00:52:36.984Z,18.84
2017-05-14T00:55:06.051Z,17.58
2017-05-14T00:57:35.190Z,21.38
2017-05-14T01:00:04.258Z,20.64
2017-05-14T01:02:33.379Z,21.22
2017-05-14T01:05:02.464Z,20.06
2017-05-14T01:07:31.582Z,18.90
2017-05-14T01:10:00.643Z,16.18
2017-05-14T01:12:30.480Z,18.84
2017-05-14T01:14:59.659Z,20.94
2017-05-14T01:17:28.783Z,21.48
2017-05-14T01:19:57.843Z,18.62
2017-05-14T01:22:26.951Z,22.04
2017-05-14T01:24:56.067Z,26.16
2017-05-14T01:27:25.154Z,23.58
2017-05-14T01:29:54.247Z,24.00
2017-05-14T01:32:23.378Z,28.46
2017-05-14T01:34:52.450Z,19.80
2017-05-14T01:37:21.604Z,22.18
2017-05-14T01:39:51.398Z,18.78
2017-05-14T01:42:21.244Z,24.04
2017-05-14T01:44:50.301Z,23.90
2017-05-14T01:47:19.444Z,22.60
2017-05-14T01:49:48.523Z,25.14
2017-05-14T01:52:17.641Z,25.12
2017-05-14T01:54:46.711Z,22.98
2017-05-14T01:57:16.050Z,22.00
2017-05-14T01:59:45.115Z,25.84
2017-05-14T02:02:14.219Z,18.18
2017-05-14T02:04:43.295Z,26.76
2017-05-14T02:07:12.400Z,25.50
2017-05-14T02:09:41.507Z,24.28
2017-05-14T02:12:10.586Z,20.56
2017-05-14T02:14:39.712Z,19.50
2017-05-14T02:17:08.758Z,22.98
2017-05-14T02:19:37.877Z,21.46
2017-05-14T02:22:07.011Z,25.44
2017-05-14T02:24:36.063Z,20.54
2017-05-14T02:27:05.197Z,25.48
2017-05-14T02:29:34.266Z,27.52
2017-05-14T02:32:03.372Z,26.56
2017-05-14T02:34:32.444Z,25.28
2017-05-14T02:37:01.589Z,24.38
2017-05-14T02:39:30.644Z,21.62
2017-05-14T02:41:59.735Z,26.40
2017-05-14T02:44:28.830Z,25.40
2017-05-14T02:46:57.976Z,25.84
2017-05-14T02:49:27.795Z,26.24
2017-05-14T02:51:57.639Z,27.72
2017-05-14T02:54:26.739Z,23.08
2017-05-14T02:56:55.859Z,25.98
2017-05-14T02:59:24.939Z,28.80
2017-05-14T03:01:54.071Z,23.40
2017-05-14T03:04:23.892Z,26.96
2017-05-14T03:06:53.024Z,27.44
2017-05-14T03:09:22.084Z,23.96
2017-05-14T03:11:51.167Z,26.76
2017-05-14T03:14:20.286Z,27.68
2017-05-14T03:16:50.086Z,27.42
2017-05-14T03:19:20.327Z,27.46
2017-05-14T03:21:49.414Z,28.26
2017-05-14T03:24:18.528Z,25.16
2017-05-14T03:26:47.592Z,25.02
2017-05-14T03:29:17.450Z,26.64
2017-05-14T03:31:46.530Z,24.68
2017-05-14T03:34:15.671Z,25.38
2017-05-14T03:36:44.913Z,26.08
2017-05-14T03:39:14.031Z,24.86
2017-05-14T03:41:43.107Z,22.50
2017-05-14T03:44:12.191Z,19.90
2017-05-14T03:46:41.496Z,22.36
2017-05-14T03:49:10.575Z,19.54
2017-05-14T03:51:40.367Z,20.50
2017-05-14T03:54:09.451Z,21.40
2017-05-14T03:56:38.511Z,21.42
2017-05-14T03:59:07.642Z,19.56
2017-05-14T04:01:36.714Z,20.74
2017-05-14T04:04:05.910Z,21.60
2017-05-14T04:06:35.007Z,21.22
2017-05-14T04:09:04.109Z,17.36
2017-05-14T04:11:33.182Z,16.62
2017-05-14T04:14:02.256Z,17.96
2017-05-14T04:16:31.368Z,15.98
2017-05-14T04:19:00.424Z,17.60
2017-05-14T04:21:30.358Z,16.04
2017-05-14T04:23:59.571Z,15.24
2017-05-14T04:26:28.643Z,17.08
2017-05-14T04:28:57.738Z,17.70
2017-05-14T04:31:26.810Z,17.22
2017-05-14T04:33:55.936Z,18.92
2017-05-14T04:36:25.003Z,17.76
2017-05-14T04:38:54.832Z,20.40
2017-05-14T04:41:23.915Z,17.72
2017-05-14T04:43:52.996Z,19.20
2017-05-14T04:46:22.070Z,20.18
2017-05-14T04:48:51.275Z,24.80
2017-05-14T04:51:20.335Z,21.10
2017-05-14T04:53:49.396Z,22.30
2017-05-14T04:56:19.220Z,19.00
2017-05-14T04:58:48.310Z,18.86
2017-05-14T05:01:17.418Z,21.70
2017-05-14T05:03:46.498Z,23.62
2017-05-14T05:06:16.315Z,21.22
2017-05-14T05:08:45.392Z,19.32
2017-05-14T05:11:14.622Z,18.50
2017-05-14T05:13:43.696Z,19.32
2017-05-14T05:16:12.772Z,19.50
2017-05-14T05:18:42.595Z,19.48
2017-05-14T05:21:12.417Z,22.00
2017-05-14T05:23:41.519Z,20.48
2017-05-14T05:26:10.586Z,21.04
2017-05-14T05:28:40.729Z,24.14
2017-05-14T05:31:09.799Z,22.50
2017-05-14T05:33:39.599Z,19.48
2017-05-14T05:36:09.438Z,21.48
2017-05-14T05:38:38.519Z,18.76
2017-05-14T05:41:08.347Z,22.56
2017-05-14T05:43:37.421Z,19.40
2017-05-14T05:46:07.254Z,20.08
2017-05-14T05:48:36.332Z,21.46
2017-05-14T05:51:05.650Z,21.78
2017-05-14T05:53:34.715Z,23.98
2017-05-14T05:56:03.822Z,21.82
2017-05-14T05:58:33.658Z,20.26
2017-05-14T06:01:02.758Z,19.62
2017-05-14T06:03:31.839Z,21.82
2017-05-14T06:06:01.638Z,21.12
2017-05-14T06:08:31.687Z,22.62
2017-05-14T06:11:00.763Z,22.96
2017-05-14T06:13:29.901Z,25.44
2017-05-14T06:15:59.074Z,25.02
2017-05-14T06:18:28.138Z,23.14
2017-05-14T06:20:58.097Z,22.46
2017-05-14T06:23:27.195Z,24.66
2017-05-14T06:25:56.280Z,23.64
2017-05-14T06:28:25.554Z,24.96
2017-05-14T06:30:54.650Z,25.82
2017-05-14T06:33:23.734Z,29.86
2017-05-14T06:35:53.559Z,26.64
2017-05-14T06:38:22.643Z,27.78
2017-05-14T06:40:51.872Z,25.62
2017-05-14T06:43:20.955Z,27.28
2017-05-14T06:45:50.010Z,32.90
2017-05-14T06:48:19.136Z,27.16
2017-05-14T06:50:48.202Z,29.06
2017-05-14T06:53:17.287Z,29.72
2017-05-14T06:55:46.354Z,31.64
2017-05-14T06:58:15.467Z,32.32
2017-05-14T07:00:44.555Z,32.46
2017-05-14T07:03:13.651Z,35.24
2017-05-14T07:05:42.725Z,30.56
2017-05-14T07:08:11.832Z,28.72
2017-05-14T07:10:40.913Z,39.16
2017-05-14T07:13:10.095Z,39.18
2017-05-14T07:15:39.144Z,34.88
2017-05-14T07:18:08.958Z,36.64
2017-05-14T07:20:38.806Z,32.60
2017-05-14T07:23:07.894Z,30.62
2017-05-14T07:25:36.987Z,28.78
2017-05-14T07:28:06.059Z,31.06
2017-05-14T07:30:35.891Z,28.88
2017-05-14T07:33:04.984Z,32.48
2017-05-14T07:35:35.110Z,42.66
2017-05-14T07:38:04.179Z,33.64
2017-05-14T07:40:34.007Z,30.34
2017-05-14T07:43:03.106Z,32.10
2017-05-14T07:45:32.187Z,32.28
2017-05-14T07:48:02.014Z,44.98
2017-05-14T07:50:31.095Z,34.10
2017-05-14T07:53:01.123Z,33.22
2017-05-14T07:55:30.187Z,32.88
2017-05-14T07:57:59.236Z,44.16
2017-05-14T08:00:28.336Z,41.68
2017-05-14T08:02:57.439Z,47.46
2017-05-14T08:05:26.540Z,39.56
2017-05-14T08:07:55.607Z,35.40
2017-05-14T08:10:24.695Z,37.74
2017-05-14T08:12:53.784Z,30.34
2017-05-14T08:15:22.990Z,33.90
2017-05-14T08:17:52.080Z,32.08
2017-05-14T08:20:21.154Z,37.22
2017-05-14T08:22:50.982Z,30.16
2017-05-14T08:25:20.908Z,28.46
2017-05-14T08:27:50.018Z,33.38
2017-05-14T08:30:19.940Z,29.52
2017-05-14T08:32:49.015Z,28.82
2017-05-14T08:35:18.187Z,35.60
2017-05-14T08:37:47.503Z,34.62
2017-05-14T08:40:16.683Z,46.04
2017-05-14T08:42:45.782Z,38.22
2017-05-14T08:45:14.886Z,38.94
2017-05-14T08:47:43.946Z,36.34
2017-05-14T08:50:13.067Z,31.72
2017-05-14T08:52:42.137Z,33.78
2017-05-14T08:57:47.366Z,34.02
2017-05-14T09:00:16.457Z,31.24
2017-05-14T09:02:45.552Z,34.44
2017-05-14T09:05:14.742Z,28.22
2017-05-14T09:07:43.815Z,31.64
2017-05-14T09:10:12.900Z,29.24
2017-05-14T09:12:41.982Z,25.98
2017-05-14T09:15:11.054Z,23.32
2017-05-14T09:17:40.886Z,29.06
2017-05-14T09:20:10.692Z,31.56
2017-05-14T09:22:40.615Z,29.88
2017-05-14T09:25:10.410Z,29.06
2017-05-14T09:27:40.234Z,25.72
2017-05-14T09:30:10.056Z,27.92
2017-05-14T09:32:39.118Z,28.44
2017-05-14T09:35:08.459Z,51.30
2017-05-14T09:37:37.555Z,38.86
2017-05-14T09:40:06.622Z,40.14
2017-05-14T09:42:36.451Z,43.10
2017-05-14T09:45:05.522Z,45.06
2017-05-14T09:47:34.807Z,31.40
2017-05-14T09:50:03.878Z,26.82
2017-05-14T09:52:32.979Z,26.70
2017-05-14T09:55:02.087Z,27.36
2017-05-14T09:57:31.175Z,24.06
2017-05-14T10:00:00.350Z,31.44
2017-05-14T10:02:29.411Z,28.26
2017-05-14T10:04:58.481Z,31.42
2017-05-14T10:07:27.711Z,29.32
2017-05-14T10:09:56.781Z,28.48
2017-05-14T10:12:25.994Z,26.10
2017-05-14T10:14:55.065Z,26.14
2017-05-14T10:17:24.119Z,26.64
2017-05-14T10:19:53.215Z,27.64
2017-05-14T10:22:22.311Z,29.34
2017-05-14T10:24:51.419Z,24.38
2017-05-14T10:27:21.258Z,28.30
2017-05-14T10:29:50.451Z,27.36
2017-05-14T10:32:20.278Z,28.80
2017-05-14T10:34:50.099Z,26.68
2017-05-14T10:37:19.935Z,28.02
2017-05-14T10:39:49.000Z,31.66
2017-05-14T10:42:18.091Z,29.34
2017-05-14T10:44:47.172Z,33.68
2017-05-14T10:47:16.266Z,34.90
2017-05-14T10:49:46.091Z,32.86
2017-05-14T10:52:15.712Z,33.54
2017-05-14T10:54:44.778Z,32.16
2017-05-14T10:57:14.018Z,25.20
2017-05-14T10:59:43.130Z,29.14
2017-05-14T11:02:12.191Z,26.66
2017-05-14T11:04:41.285Z,25.06
2017-05-14T11:07:10.478Z,29.44
2017-05-14T11:09:40.310Z,23.88
2017-05-14T11:12:09.391Z,29.26
2017-05-14T11:14:38.487Z,22.28
2017-05-14T11:17:07.596Z,20.40
2017-05-14T11:19:36.666Z,19.32
2017-05-14T11:22:05.873Z,17.66
2017-05-14T11:24:34.955Z,18.10
2017-05-14T11:27:04.768Z,18.10
2017-05-14T11:29:33.891Z,18.26
2017-05-14T11:32:02.971Z,18.04
2017-05-14T11:34:32.098Z,20.60
2017-05-14T11:37:02.069Z,18.62
2017-05-14T11:39:31.901Z,17.24
2017-05-14T11:42:00.985Z,16.58
2017-05-14T11:44:30.084Z,15.48
2017-05-14T11:46:59.187Z,15.54
2017-05-14T11:49:28.267Z,16.70
2017-05-14T11:51:57.617Z,15.76
2017-05-14T11:54:26.693Z,15.70
2017-05-14T11:56:55.774Z,15.78
2017-05-14T11:59:24.874Z,14.56
2017-05-14T12:01:53.938Z,15.60
2017-05-14T12:04:23.150Z,15.72
2017-05-14T12:06:52.218Z,16.16
2017-05-14T12:09:21.295Z,16.92
2017-05-14T12:11:50.381Z,14.80
2017-05-14T12:14:19.451Z,14.44
2017-05-14T12:16:48.923Z,15.62
2017-05-14T12:19:18.015Z,16.96
2017-05-14T12:21:47.110Z,16.80
2017-05-14T12:24:16.211Z,17.14
2017-05-14T12:26:45.290Z,16.50
2017-05-14T12:29:14.609Z,15.50
2017-05-14T12:31:43.672Z,17.54
2017-05-14T12:34:13.496Z,17.04
2017-05-14T12:36:43.327Z,16.50
2017-05-14T12:39:12.403Z,12.94
2017-05-14T12:41:42.326Z,14.76
2017-05-14T12:44:11.406Z,15.18
2017-05-14T12:46:40.520Z,15.50
2017-05-14T12:49:09.602Z,16.48
2017-05-14T12:51:38.683Z,17.02
2017-05-14T12:54:08.628Z,14.26
2017-05-14T12:56:37.726Z,16.04
2017-05-14T12:59:06.822Z,15.30
2017-05-14T13:01:35.908Z,17.26
2017-05-14T13:04:04.982Z,15.28
2017-05-14T13:06:34.514Z,17.50
2017-05-14T13:09:03.582Z,16.56
2017-05-14T13:11:33.383Z,15.64
2017-05-14T13:14:03.226Z,15.76
2017-05-14T13:16:32.306Z,15.96
2017-05-14T13:19:01.407Z,15.50
2017-05-14T13:21:31.242Z,17.46
2017-05-14T13:24:00.431Z,15.36
2017-05-14T13:26:29.490Z,15.96
2017-05-14T13:28:58.546Z,13.86
2017-05-14T13:31:27.630Z,11.38
2017-05-14T13:33:56.711Z,10.40
2017-05-14T13:36:25.904Z,11.38
2017-05-14T13:38:54.995Z,10.20
2017-05-14T13:41:24.063Z,9.98
2017-05-14T13:43:53.879Z,7.70
2017-05-14T13:46:23.002Z,9.66
2017-05-14T13:48:52.190Z,9.46
2017-05-14T13:51:21.254Z,7.72
2017-05-14T13:53:51.058Z,8.52
2017-05-14T13:56:20.222Z,9.58
2017-05-14T13:58:49.262Z,7.80
2017-05-14T14:01:19.095Z,8.78
2017-05-14T14:03:48.159Z,9.96
2017-05-14T14:06:17.491Z,8.62
2017-05-14T14:08:47.312Z,9.84
2017-05-14T14:11:16.395Z,10.92
2017-05-14T14:13:45.491Z,8.64
2017-05-14T14:16:14.548Z,9.00
2017-05-14T14:18:43.642Z,7.42
2017-05-14T14:21:13.502Z,7.90
2017-05-14T14:23:42.998Z,9.08
2017-05-14T14:26:12.072Z,8.60
2017-05-14T14:28:41.874Z,8.04
2017-05-14T14:31:10.946Z,8.16
2017-05-14T14:33:40.012Z,9.92
2017-05-14T14:36:09.210Z,8.20
2017-05-14T14:38:38.258Z,9.24
2017-05-14T14:41:08.070Z,14.08
2017-05-14T14:43:37.906Z,9.56
2017-05-14T14:46:07.699Z,10.18
2017-05-14T14:48:37.527Z,10.60
2017-05-14T14:51:06.629Z,10.84
2017-05-14T14:53:36.135Z,12.44
2017-05-14T14:56:05.207Z,10.44
2017-05-14T14:58:34.304Z,10.54
2017-05-14T15:01:04.143Z,9.64
2017-05-14T15:03:33.204Z,10.50
2017-05-14T15:06:03.030Z,9.22
2017-05-14T15:08:32.086Z,7.64
2017-05-14T15:11:01.923Z,8.10
2017-05-14T15:13:31.737Z,8.18
2017-05-14T15:16:00.997Z,8.96
2017-05-14T15:18:30.087Z,9.18
2017-05-14T15:20:59.143Z,8.26
2017-05-14T15:23:29.156Z,7.96
2017-05-14T15:25:58.942Z,7.92
2017-05-14T15:28:28.018Z,8.36
2017-05-14T15:30:57.083Z,8.70
2017-05-14T15:33:26.166Z,8.30
2017-05-14T15:35:55.552Z,8.94
2017-05-14T15:38:24.614Z,8.94
2017-05-14T15:40:53.715Z,10.20
2017-05-14T15:43:22.830Z,10.06
2017-05-14T15:45:52.627Z,9.20
2017-05-14T15:48:22.562Z,8.52
2017-05-14T15:50:51.695Z,8.70
2017-05-14T15:53:20.762Z,9.92
2017-05-14T15:55:49.936Z,13.34
2017-05-14T15:58:19.739Z,16.60
2017-05-14T16:00:48.794Z,15.28
2017-05-14T16:03:17.886Z,16.28
2017-05-14T16:05:46.966Z,15.88
2017-05-14T16:08:16.175Z,13.46
2017-05-14T16:10:45.267Z,11.18
2017-05-14T16:13:14.339Z,11.12
2017-05-14T16:15:43.430Z,10.92
2017-05-14T16:18:12.512Z,14.34
2017-05-14T16:20:41.711Z,12.12
2017-05-14T16:23:10.790Z,16.38
2017-05-14T16:25:41.045Z,14.36
2017-05-14T16:28:10.158Z,13.98
2017-05-14T16:30:39.210Z,15.18
2017-05-14T16:33:08.434Z,11.48
2017-05-14T16:35:37.906Z,13.62
2017-05-14T16:38:06.967Z,13.66
2017-05-14T16:40:36.058Z,11.98
2017-05-14T16:43:05.131Z,12.20
2017-05-14T16:45:34.344Z,12.82
2017-05-14T16:48:03.732Z,11.70
2017-05-14T16:50:32.783Z,11.82
2017-05-14T16:53:02.611Z,10.20
2017-05-14T16:55:31.678Z,11.20
2017-05-14T16:58:01.527Z,9.94
2017-05-14T17:00:30.587Z,10.76
2017-05-14T17:02:59.675Z,11.10
2017-05-14T17:05:28.902Z,11.76
2017-05-14T17:07:57.991Z,14.16
2017-05-14T17:10:27.082Z,14.64
2017-05-14T17:12:56.334Z,14.36
2017-05-14T17:15:25.410Z,14.08
2017-05-14T17:17:54.476Z,13.60
2017-05-14T17:20:23.714Z,12.16
2017-05-14T17:22:52.796Z,9.84
2017-05-14T17:25:22.096Z,11.42
2017-05-14T17:27:51.158Z,8.06
2017-05-14T17:30:20.946Z,9.42
2017-05-14T17:32:50.788Z,9.16
2017-05-14T17:35:20.571Z,7.34
2017-05-14T17:37:49.747Z,7.60
2017-05-14T17:40:18.798Z,7.70
2017-05-14T17:42:47.855Z,7.28
2017-05-14T17:45:16.964Z,7.60
2017-05-14T17:47:46.039Z,9.44
2017-05-14T17:50:15.239Z,9.44
2017-05-14T17:52:44.315Z,7.98
2017-05-14T17:55:13.384Z,8.72
2017-05-14T17:57:42.466Z,7.72
2017-05-14T18:00:11.510Z,7.08
2017-05-14T18:02:41.060Z,8.26
2017-05-14T18:05:10.119Z,8.76
2017-05-14T18:07:39.166Z,9.98
2017-05-14T18:10:08.258Z,7.60
2017-05-14T18:12:37.335Z,7.26
2017-05-14T18:15:06.538Z,8.62
2017-05-14T18:17:35.598Z,8.14
2017-05-14T18:20:05.408Z,8.68
2017-05-14T18:22:35.253Z,7.28
2017-05-14T18:25:04.315Z,7.54
2017-05-14T18:27:34.146Z,7.92
2017-05-14T18:30:03.207Z,8.62
2017-05-14T18:32:32.398Z,8.12
2017-05-14T18:35:02.228Z,7.48
2017-05-14T18:37:32.071Z,7.54
2017-05-14T18:40:01.170Z,7.20
2017-05-14T18:42:30.223Z,6.30
2017-05-14T18:45:00.069Z,7.10
2017-05-14T18:47:29.128Z,7.12
2017-05-14T18:49:59.069Z,6.64
2017-05-14T18:52:28.138Z,5.52
2017-05-14T18:54:57.196Z,5.08
2017-05-14T18:57:26.282Z,5.56
2017-05-14T18:59:55.335Z,5.40
2017-05-14T19:02:24.590Z,5.30
2017-05-14T19:04:53.742Z,5.24
2017-05-14T19:07:22.808Z,6.00
2017-05-14T19:09:51.998Z,5.54
2017-05-14T19:12:21.048Z,5.42
2017-05-14T19:14:50.086Z,6.38
2017-05-14T19:17:19.534Z,6.58
2017-05-14T19:19:48.602Z,7.18
2017-05-14T19:22:17.687Z,6.14
2017-05-14T19:24:47.523Z,7.00
2017-05-14T19:27:16.589Z,6.82
2017-05-14T19:29:46.047Z,6.92
2017-05-14T19:32:15.143Z,6.62
2017-05-14T19:34:44.218Z,5.70
2017-05-14T19:37:13.338Z,5.40
2017-05-14T19:39:42.431Z,4.42
2017-05-14T19:42:11.650Z,4.58
2017-05-14T19:44:41.473Z,4.98
2017-05-14T19:47:10.525Z,5.16
2017-05-14T19:49:39.737Z,4.66
2017-05-14T19:52:08.799Z,4.64
2017-05-14T19:54:37.909Z,5.00
2017-05-14T19:57:07.250Z,5.36
2017-05-14T19:59:36.414Z,4.94
2017-05-14T20:02:05.676Z,5.42
2017-05-14T20:04:34.974Z,6.66
2017-05-14T20:07:04.791Z,6.70
2017-05-14T20:09:34.830Z,5.80
2017-05-14T20:12:03.911Z,7.54
2017-05-14T20:14:33.007Z,6.82
2017-05-14T20:17:02.198Z,8.04
2017-05-14T20:19:32.004Z,7.62
2017-05-14T20:22:01.063Z,9.12
2017-05-14T20:24:30.919Z,8.96
2017-05-14T20:26:59.996Z,10.90
2017-05-14T20:29:29.263Z,10.68
2017-05-14T20:31:58.321Z,9.90
2017-05-14T20:34:27.507Z,10.30
2017-05-14T20:36:56.594Z,12.48
2017-05-14T20:39:25.711Z,11.62
2017-05-14T20:41:54.797Z,11.36
2017-05-14T20:44:23.871Z,11.76
2017-05-14T20:46:52.991Z,12.32
2017-05-14T20:49:22.044Z,13.00
2017-05-14T20:51:51.339Z,12.64
2017-05-14T20:54:20.416Z,11.40
2017-05-14T20:56:50.255Z,14.06
2017-05-14T20:59:19.355Z,13.52
2017-05-14T21:01:48.455Z,15.40
2017-05-14T21:04:17.684Z,16.12
2017-05-14T21:06:46.780Z,14.34
2017-05-14T21:09:15.867Z,13.96
2017-05-14T21:11:44.964Z,13.08
2017-05-14T21:14:14.024Z,12.08
2017-05-14T21:16:43.471Z,15.78
2017-05-14T21:19:12.779Z,14.50
2017-05-14T21:21:41.870Z,14.86
2017-05-14T21:24:10.974Z,14.40
2017-05-14T21:26:40.034Z,13.96
2017-05-14T21:29:09.236Z,14.66
2017-05-14T21:31:38.302Z,15.26
2017-05-14T21:34:07.408Z,14.46
2017-05-14T21:36:36.501Z,15.70
2017-05-14T21:39:05.723Z,15.60
2017-05-14T21:41:34.812Z,14.70
2017-05-14T21:44:03.891Z,14.32
2017-05-14T21:46:33.087Z,15.60
2017-05-14T21:49:02.180Z,16.28
2017-05-14T21:51:31.275Z,16.78
2017-05-14T21:54:01.112Z,15.74
2017-05-14T21:56:30.199Z,12.76
2017-05-14T21:58:59.506Z,13.04
2017-05-14T22:01:34.174Z,15.32
2017-05-14T22:04:03.518Z,13.06
2017-05-14T22:06:32.623Z,14.56
2017-05-14T22:09:01.824Z,12.32
2017-05-14T22:11:30.934Z,12.96
2017-05-14T22:13:59.995Z,12.14
2017-05-14T22:16:29.090Z,11.98
2017-05-14T22:18:58.167Z,13.10
2017-05-14T22:21:27.399Z,11.64
2017-05-14T22:23:56.467Z,11.34
2017-05-14T22:26:26.287Z,12.00
2017-05-14T22:28:55.382Z,11.54
2017-05-14T22:31:24.462Z,11.28
2017-05-14T22:33:54.288Z,9.76
2017-05-14T22:36:23.374Z,10.74
2017-05-14T22:38:52.743Z,10.20
2017-05-14T22:41:21.814Z,11.48
2017-05-14T22:43:50.991Z,11.74
2017-05-14T22:46:20.070Z,10.94
2017-05-14T22:48:49.870Z,11.18
2017-05-14T22:51:19.696Z,10.72
2017-05-14T22:53:49.495Z,10.54
2017-05-14T22:56:19.324Z,10.12
2017-05-14T22:58:49.111Z,11.06
2017-05-14T23:01:18.323Z,10.60
2017-05-14T23:03:47.402Z,10.96
2017-05-14T23:06:17.219Z,11.58
2017-05-14T23:08:46.355Z,11.12
2017-05-14T23:11:15.426Z,11.84
2017-05-14T23:13:44.530Z,9.58
2017-05-14T23:16:13.594Z,11.30
2017-05-14T23:18:42.837Z,11.98
2017-05-14T23:21:11.923Z,11.76
2017-05-14T23:23:40.986Z,11.56
2017-05-14T23:26:10.816Z,12.14
2017-05-14T23:28:40.607Z,13.96
2017-05-14T23:31:09.822Z,12.14
2017-05-14T23:33:38.894Z,11.90
2017-05-14T23:36:08.717Z,12.04
2017-05-14T23:38:37.803Z,11.28
2017-05-14T23:41:07.619Z,10.38
2017-05-14T23:43:37.644Z,10.38
2017-05-14T23:46:06.720Z,11.18
2017-05-14T23:48:36.527Z,9.52
2017-05-14T23:51:06.358Z,10.50
2017-05-14T23:53:35.435Z,11.60
2017-05-14T23:56:05.279Z,11.06
2017-05-14T23:58:34.347Z,12.28
